sensor_id;sensor_type;location;lat;lon;timestamp;P1;durP1;ratioP1;P2;durP2;ratioP2
73863;SDS011;62200;52.062;5.292;2022-07-22T00:01:46;7.70;;;1.98;;
73863;SDS011;62200;52.062;5.292;2022-07-22T00:04:11;9.45;;;2.33;;
73863;SDS011;62200;52.062;5.292;2022-07-22T00:06:37;9.02;;;2.10;;
73863;SDS011;62200;52.062;5.292;2022-07-22T00:09:02;6.90;;;1.83;;
73863;SDS011;62200;52.062;5.292;2022-07-22T00:11:28;7.25;;;1.98;;
73863;SDS011;62200;52.062;5.292;2022-07-22T00:13:53;7.65;;;2.30;;
73863;SDS011;62200;52.062;5.292;2022-07-22T00:16:19;6.72;;;2.22;;
73863;SDS011;62200;52.062;5.292;2022-07-22T00:18:44;7.07;;;1.85;;
73863;SDS011;62200;52.062;5.292;2022-07-22T00:21:10;7.88;;;2.17;;
73863;SDS011;62200;52.062;5.292;2022-07-22T00:23:35;7.18;;;2.35;;
73863;SDS011;62200;52.062;5.292;2022-07-22T00:26:00;6.90;;;2.13;;
73863;SDS011;62200;52.062;5.292;2022-07-22T00:28:26;8.23;;;2.30;;
73863;SDS011;62200;52.062;5.292;2022-07-22T00:30:51;8.15;;;2.33;;
73863;SDS011;62200;52.062;5.292;2022-07-22T00:33:17;3.38;;;1.83;;
73863;SDS011;62200;52.062;5.292;2022-07-22T00:35:42;7.68;;;2.15;;
73863;SDS011;62200;52.062;5.292;2022-07-22T00:38:08;6.57;;;2.35;;
73863;SDS011;62200;52.062;5.292;2022-07-22T00:40:33;7.68;;;2.17;;
73863;SDS011;62200;52.062;5.292;2022-07-22T00:42:59;6.45;;;2.03;;
73863;SDS011;62200;52.062;5.292;2022-07-22T00:45:25;4.85;;;2.40;;
73863;SDS011;62200;52.062;5.292;2022-07-22T00:47:50;7.57;;;2.13;;
73863;SDS011;62200;52.062;5.292;2022-07-22T00:50:16;7.18;;;2.10;;
73863;SDS011;62200;52.062;5.292;2022-07-22T00:52:44;7.03;;;2.08;;
73863;SDS011;62200;52.062;5.292;2022-07-22T00:55:10;8.30;;;2.30;;
73863;SDS011;62200;52.062;5.292;2022-07-22T00:57:36;8.50;;;2.13;;
73863;SDS011;62200;52.062;5.292;2022-07-22T01:00:04;5.70;;;2.15;;
73863;SDS011;62200;52.062;5.292;2022-07-22T01:02:33;7.22;;;2.00;;
73863;SDS011;62200;52.062;5.292;2022-07-22T01:04:58;5.85;;;2.15;;
73863;SDS011;62200;52.062;5.292;2022-07-22T01:07:24;9.25;;;2.58;;
73863;SDS011;62200;52.062;5.292;2022-07-22T01:09:49;8.63;;;2.10;;
73863;SDS011;62200;52.062;5.292;2022-07-22T01:12:14;10.57;;;2.13;;
73863;SDS011;62200;52.062;5.292;2022-07-22T01:14:40;8.30;;;1.98;;
73863;SDS011;62200;52.062;5.292;2022-07-22T01:17:06;7.07;;;2.08;;
73863;SDS011;62200;52.062;5.292;2022-07-22T01:19:32;5.43;;;1.67;;
73863;SDS011;62200;52.062;5.292;2022-07-22T01:21:58;7.88;;;2.42;;
73863;SDS011;62200;52.062;5.292;2022-07-22T01:24:23;8.80;;;2.65;;
73863;SDS011;62200;52.062;5.292;2022-07-22T01:26:49;8.85;;;2.22;;
73863;SDS011;62200;52.062;5.292;2022-07-22T01:29:14;8.00;;;2.17;;
73863;SDS011;62200;52.062;5.292;2022-07-22T01:31:40;7.25;;;2.00;;
73863;SDS011;62200;52.062;5.292;2022-07-22T01:34:05;4.82;;;2.22;;
73863;SDS011;62200;52.062;5.292;2022-07-22T01:36:31;4.18;;;2.00;;
73863;SDS011;62200;52.062;5.292;2022-07-22T01:38:56;7.18;;;1.95;;
73863;SDS011;62200;52.062;5.292;2022-07-22T01:41:22;5.85;;;1.90;;
73863;SDS011;62200;52.062;5.292;2022-07-22T01:43:47;9.38;;;2.00;;
73863;SDS011;62200;52.062;5.292;2022-07-22T01:46:13;7.03;;;2.05;;
73863;SDS011;62200;52.062;5.292;2022-07-22T01:48:39;6.90;;;2.45;;
73863;SDS011;62200;52.062;5.292;2022-07-22T01:51:05;6.78;;;2.00;;
73863;SDS011;62200;52.062;5.292;2022-07-22T01:53:30;6.07;;;2.13;;
73863;SDS011;62200;52.062;5.292;2022-07-22T01:55:56;7.95;;;2.75;;
73863;SDS011;62200;52.062;5.292;2022-07-22T01:58:21;8.73;;;1.83;;
73863;SDS011;62200;52.062;5.292;2022-07-22T02:00:47;5.18;;;1.65;;
73863;SDS011;62200;52.062;5.292;2022-07-22T02:03:13;5.22;;;1.83;;
73863;SDS011;62200;52.062;5.292;2022-07-22T02:05:38;8.45;;;2.35;;
73863;SDS011;62200;52.062;5.292;2022-07-22T02:08:05;6.30;;;2.38;;
73863;SDS011;62200;52.062;5.292;2022-07-22T02:10:33;8.52;;;2.25;;
73863;SDS011;62200;52.062;5.292;2022-07-22T02:12:58;10.10;;;2.58;;
73863;SDS011;62200;52.062;5.292;2022-07-22T02:15:24;6.78;;;2.05;;
73863;SDS011;62200;52.062;5.292;2022-07-22T02:17:50;6.45;;;2.17;;
73863;SDS011;62200;52.062;5.292;2022-07-22T02:20:16;6.22;;;2.35;;
73863;SDS011;62200;52.062;5.292;2022-07-22T02:22:42;8.98;;;2.15;;
73863;SDS011;62200;52.062;5.292;2022-07-22T02:25:07;8.38;;;2.15;;
73863;SDS011;62200;52.062;5.292;2022-07-22T02:27:33;5.90;;;2.10;;
73863;SDS011;62200;52.062;5.292;2022-07-22T02:29:59;6.57;;;2.25;;
73863;SDS011;62200;52.062;5.292;2022-07-22T02:32:24;5.53;;;1.75;;
73863;SDS011;62200;52.062;5.292;2022-07-22T02:34:50;7.95;;;2.58;;
73863;SDS011;62200;52.062;5.292;2022-07-22T02:37:15;8.45;;;2.47;;
73863;SDS011;62200;52.062;5.292;2022-07-22T02:39:40;5.63;;;2.10;;
73863;SDS011;62200;52.062;5.292;2022-07-22T02:42:06;8.55;;;2.10;;
73863;SDS011;62200;52.062;5.292;2022-07-22T02:44:31;5.47;;;2.10;;
73863;SDS011;62200;52.062;5.292;2022-07-22T02:46:57;5.00;;;2.33;;
73863;SDS011;62200;52.062;5.292;2022-07-22T02:49:22;4.97;;;2.10;;
73863;SDS011;62200;52.062;5.292;2022-07-22T02:51:48;10.57;;;2.42;;
73863;SDS011;62200;52.062;5.292;2022-07-22T02:54:13;8.07;;;2.03;;
73863;SDS011;62200;52.062;5.292;2022-07-22T02:56:38;7.43;;;2.13;;
73863;SDS011;62200;52.062;5.292;2022-07-22T02:59:04;8.15;;;1.63;;
73863;SDS011;62200;52.062;5.292;2022-07-22T03:01:29;5.88;;;2.08;;
73863;SDS011;62200;52.062;5.292;2022-07-22T03:03:55;7.10;;;1.77;;
73863;SDS011;62200;52.062;5.292;2022-07-22T03:06:20;5.95;;;2.35;;
73863;SDS011;62200;52.062;5.292;2022-07-22T03:08:48;5.50;;;1.80;;
73863;SDS011;62200;52.062;5.292;2022-07-22T03:11:14;7.20;;;2.15;;
73863;SDS011;62200;52.062;5.292;2022-07-22T03:13:39;8.63;;;2.00;;
73863;SDS011;62200;52.062;5.292;2022-07-22T03:16:05;5.97;;;2.13;;
73863;SDS011;62200;52.062;5.292;2022-07-22T03:18:30;7.07;;;1.88;;
73863;SDS011;62200;52.062;5.292;2022-07-22T03:20:56;3.25;;;1.45;;
73863;SDS011;62200;52.062;5.292;2022-07-22T03:23:21;3.97;;;1.83;;
73863;SDS011;62200;52.062;5.292;2022-07-22T03:25:47;8.38;;;1.95;;
73863;SDS011;62200;52.062;5.292;2022-07-22T03:28:12;5.88;;;1.52;;
73863;SDS011;62200;52.062;5.292;2022-07-22T03:30:38;6.10;;;2.38;;
73863;SDS011;62200;52.062;5.292;2022-07-22T03:33:03;6.07;;;2.30;;
73863;SDS011;62200;52.062;5.292;2022-07-22T03:35:29;6.15;;;2.00;;
73863;SDS011;62200;52.062;5.292;2022-07-22T03:37:54;6.13;;;1.83;;
73863;SDS011;62200;52.062;5.292;2022-07-22T03:40:20;6.32;;;2.03;;
73863;SDS011;62200;52.062;5.292;2022-07-22T03:42:45;7.35;;;1.77;;
73863;SDS011;62200;52.062;5.292;2022-07-22T03:45:11;7.32;;;2.22;;
73863;SDS011;62200;52.062;5.292;2022-07-22T03:47:36;4.90;;;1.98;;
73863;SDS011;62200;52.062;5.292;2022-07-22T03:50:02;5.38;;;1.70;;
73863;SDS011;62200;52.062;5.292;2022-07-22T03:52:28;4.80;;;1.50;;
73863;SDS011;62200;52.062;5.292;2022-07-22T03:54:54;4.32;;;1.70;;
73863;SDS011;62200;52.062;5.292;2022-07-22T03:57:19;6.28;;;2.08;;
73863;SDS011;62200;52.062;5.292;2022-07-22T03:59:45;7.25;;;1.83;;
73863;SDS011;62200;52.062;5.292;2022-07-22T04:02:11;7.18;;;2.00;;
73863;SDS011;62200;52.062;5.292;2022-07-22T04:04:36;6.35;;;1.90;;
73863;SDS011;62200;52.062;5.292;2022-07-22T04:07:01;7.75;;;2.17;;
73863;SDS011;62200;52.062;5.292;2022-07-22T04:09:27;6.60;;;2.08;;
73863;SDS011;62200;52.062;5.292;2022-07-22T04:11:52;6.85;;;2.22;;
73863;SDS011;62200;52.062;5.292;2022-07-22T04:14:18;5.85;;;1.90;;
73863;SDS011;62200;52.062;5.292;2022-07-22T04:16:43;7.03;;;2.25;;
73863;SDS011;62200;52.062;5.292;2022-07-22T04:19:09;6.47;;;1.73;;
73863;SDS011;62200;52.062;5.292;2022-07-22T04:21:35;7.88;;;1.80;;
73863;SDS011;62200;52.062;5.292;2022-07-22T04:24:01;3.53;;;1.60;;
73863;SDS011;62200;52.062;5.292;2022-07-22T04:26:26;4.65;;;1.75;;
73863;SDS011;62200;52.062;5.292;2022-07-22T04:28:52;6.40;;;2.30;;
73863;SDS011;62200;52.062;5.292;2022-07-22T04:31:18;7.07;;;1.77;;
73863;SDS011;62200;52.062;5.292;2022-07-22T04:33:43;5.85;;;1.60;;
73863;SDS011;62200;52.062;5.292;2022-07-22T04:36:08;7.00;;;2.03;;
73863;SDS011;62200;52.062;5.292;2022-07-22T04:38:34;4.95;;;1.98;;
73863;SDS011;62200;52.062;5.292;2022-07-22T04:40:59;7.07;;;1.75;;
73863;SDS011;62200;52.062;5.292;2022-07-22T04:43:25;3.88;;;1.48;;
73863;SDS011;62200;52.062;5.292;2022-07-22T04:45:50;4.53;;;1.80;;
73863;SDS011;62200;52.062;5.292;2022-07-22T04:48:16;3.88;;;1.40;;
73863;SDS011;62200;52.062;5.292;2022-07-22T04:50:42;8.95;;;1.38;;
73863;SDS011;62200;52.062;5.292;2022-07-22T04:53:07;9.05;;;2.00;;
73863;SDS011;62200;52.062;5.292;2022-07-22T04:55:33;5.00;;;1.95;;
73863;SDS011;62200;52.062;5.292;2022-07-22T04:57:58;5.15;;;1.48;;
73863;SDS011;62200;52.062;5.292;2022-07-22T05:00:23;3.78;;;1.40;;
73863;SDS011;62200;52.062;5.292;2022-07-22T05:02:49;3.97;;;1.52;;
73863;SDS011;62200;52.062;5.292;2022-07-22T05:05:16;4.60;;;1.25;;
73863;SDS011;62200;52.062;5.292;2022-07-22T05:07:41;5.50;;;1.77;;
73863;SDS011;62200;52.062;5.292;2022-07-22T05:10:07;5.25;;;1.23;;
73863;SDS011;62200;52.062;5.292;2022-07-22T05:12:33;3.05;;;1.17;;
73863;SDS011;62200;52.062;5.292;2022-07-22T05:14:58;5.88;;;1.27;;
73863;SDS011;62200;52.062;5.292;2022-07-22T05:17:24;4.38;;;1.25;;
73863;SDS011;62200;52.062;5.292;2022-07-22T05:19:49;5.10;;;1.30;;
73863;SDS011;62200;52.062;5.292;2022-07-22T05:22:15;3.42;;;1.30;;
73863;SDS011;62200;52.062;5.292;2022-07-22T05:24:40;2.03;;;0.90;;
73863;SDS011;62200;52.062;5.292;2022-07-22T05:27:06;2.22;;;0.90;;
73863;SDS011;62200;52.062;5.292;2022-07-22T05:29:31;3.28;;;1.20;;
73863;SDS011;62200;52.062;5.292;2022-07-22T05:31:56;3.53;;;1.30;;
73863;SDS011;62200;52.062;5.292;2022-07-22T05:34:22;4.22;;;1.10;;
73863;SDS011;62200;52.062;5.292;2022-07-22T05:36:48;8.75;;;1.40;;
73863;SDS011;62200;52.062;5.292;2022-07-22T05:39:13;3.00;;;0.88;;
73863;SDS011;62200;52.062;5.292;2022-07-22T05:41:39;3.72;;;1.33;;
73863;SDS011;62200;52.062;5.292;2022-07-22T05:44:05;3.10;;;1.10;;
73863;SDS011;62200;52.062;5.292;2022-07-22T05:46:31;4.57;;;0.95;;
73863;SDS011;62200;52.062;5.292;2022-07-22T05:48:57;4.07;;;1.10;;
73863;SDS011;62200;52.062;5.292;2022-07-22T05:51:22;3.72;;;0.82;;
73863;SDS011;62200;52.062;5.292;2022-07-22T05:53:48;4.45;;;1.00;;
73863;SDS011;62200;52.062;5.292;2022-07-22T05:56:14;4.75;;;1.25;;
73863;SDS011;62200;52.062;5.292;2022-07-22T05:58:39;5.03;;;1.02;;
73863;SDS011;62200;52.062;5.292;2022-07-22T06:01:06;6.50;;;1.20;;
73863;SDS011;62200;52.062;5.292;2022-07-22T06:03:32;9.80;;;1.33;;
73863;SDS011;62200;52.062;5.292;2022-07-22T06:05:57;7.35;;;0.70;;
73863;SDS011;62200;52.062;5.292;2022-07-22T06:08:23;2.30;;;1.00;;
73863;SDS011;62200;52.062;5.292;2022-07-22T06:10:48;6.28;;;1.15;;
73863;SDS011;62200;52.062;5.292;2022-07-22T06:13:14;6.10;;;0.80;;
73863;SDS011;62200;52.062;5.292;2022-07-22T06:15:39;3.47;;;0.85;;
73863;SDS011;62200;52.062;5.292;2022-07-22T06:18:05;4.40;;;1.15;;
73863;SDS011;62200;52.062;5.292;2022-07-22T06:20:30;4.22;;;1.35;;
73863;SDS011;62200;52.062;5.292;2022-07-22T06:22:56;4.32;;;0.88;;
73863;SDS011;62200;52.062;5.292;2022-07-22T06:25:21;5.30;;;1.00;;
73863;SDS011;62200;52.062;5.292;2022-07-22T06:27:47;7.13;;;1.50;;
73863;SDS011;62200;52.062;5.292;2022-07-22T06:30:13;2.72;;;0.82;;
73863;SDS011;62200;52.062;5.292;2022-07-22T06:32:38;5.75;;;1.27;;
73863;SDS011;62200;52.062;5.292;2022-07-22T06:35:04;3.97;;;1.08;;
73863;SDS011;62200;52.062;5.292;2022-07-22T06:37:30;5.85;;;0.82;;
73863;SDS011;62200;52.062;5.292;2022-07-22T06:39:55;4.47;;;0.90;;
73863;SDS011;62200;52.062;5.292;2022-07-22T06:42:21;5.03;;;0.88;;
73863;SDS011;62200;52.062;5.292;2022-07-22T06:44:47;1.67;;;0.80;;
73863;SDS011;62200;52.062;5.292;2022-07-22T06:47:13;3.13;;;0.90;;
73863;SDS011;62200;52.062;5.292;2022-07-22T06:49:39;3.67;;;0.82;;
73863;SDS011;62200;52.062;5.292;2022-07-22T06:52:05;4.28;;;0.80;;
73863;SDS011;62200;52.062;5.292;2022-07-22T06:54:30;4.28;;;1.08;;
73863;SDS011;62200;52.062;5.292;2022-07-22T06:56:56;5.10;;;0.90;;
73863;SDS011;62200;52.062;5.292;2022-07-22T06:59:22;6.35;;;1.10;;
73863;SDS011;62200;52.062;5.292;2022-07-22T07:01:48;2.95;;;0.77;;
73863;SDS011;62200;52.062;5.292;2022-07-22T07:04:14;6.05;;;0.98;;
73863;SDS011;62200;52.062;5.292;2022-07-22T07:06:40;1.88;;;0.60;;
73863;SDS011;62200;52.062;5.292;2022-07-22T07:09:05;4.18;;;0.65;;
73863;SDS011;62200;52.062;5.292;2022-07-22T07:11:31;5.00;;;0.95;;
73863;SDS011;62200;52.062;5.292;2022-07-22T07:13:56;3.67;;;0.77;;
73863;SDS011;62200;52.062;5.292;2022-07-22T07:16:21;2.20;;;0.60;;
73863;SDS011;62200;52.062;5.292;2022-07-22T07:18:47;3.45;;;0.75;;
73863;SDS011;62200;52.062;5.292;2022-07-22T07:21:12;4.45;;;1.13;;
73863;SDS011;62200;52.062;5.292;2022-07-22T07:23:38;3.10;;;0.80;;
73863;SDS011;62200;52.062;5.292;2022-07-22T07:26:03;3.20;;;1.10;;
73863;SDS011;62200;52.062;5.292;2022-07-22T07:28:29;2.33;;;0.90;;
73863;SDS011;62200;52.062;5.292;2022-07-22T07:30:54;5.50;;;0.95;;
73863;SDS011;62200;52.062;5.292;2022-07-22T07:33:20;2.83;;;0.70;;
73863;SDS011;62200;52.062;5.292;2022-07-22T07:35:45;3.20;;;0.98;;
73863;SDS011;62200;52.062;5.292;2022-07-22T07:38:10;3.78;;;0.68;;
73863;SDS011;62200;52.062;5.292;2022-07-22T07:40:36;1.52;;;0.45;;
73863;SDS011;62200;52.062;5.292;2022-07-22T07:43:02;2.38;;;0.73;;
73863;SDS011;62200;52.062;5.292;2022-07-22T07:45:27;2.90;;;0.68;;
73863;SDS011;62200;52.062;5.292;2022-07-22T07:47:53;2.88;;;0.80;;
73863;SDS011;62200;52.062;5.292;2022-07-22T07:50:18;2.83;;;0.45;;
73863;SDS011;62200;52.062;5.292;2022-07-22T07:52:44;4.45;;;1.00;;
73863;SDS011;62200;52.062;5.292;2022-07-22T07:55:12;3.88;;;0.52;;
73863;SDS011;62200;52.062;5.292;2022-07-22T07:57:39;2.85;;;0.88;;
73863;SDS011;62200;52.062;5.292;2022-07-22T08:00:06;4.57;;;0.88;;
73863;SDS011;62200;52.062;5.292;2022-07-22T08:02:34;1.90;;;0.50;;
73863;SDS011;62200;52.062;5.292;2022-07-22T08:05:00;2.15;;;0.60;;
73863;SDS011;62200;52.062;5.292;2022-07-22T08:07:26;5.45;;;0.82;;
73863;SDS011;62200;52.062;5.292;2022-07-22T08:09:52;4.45;;;0.80;;
73863;SDS011;62200;52.062;5.292;2022-07-22T08:12:18;3.63;;;0.70;;
73863;SDS011;62200;52.062;5.292;2022-07-22T08:14:44;2.67;;;0.80;;
73863;SDS011;62200;52.062;5.292;2022-07-22T08:17:09;7.40;;;0.85;;
73863;SDS011;62200;52.062;5.292;2022-07-22T08:19:34;3.13;;;0.70;;
73863;SDS011;62200;52.062;5.292;2022-07-22T08:22:00;2.15;;;0.50;;
73863;SDS011;62200;52.062;5.292;2022-07-22T08:24:25;2.50;;;0.55;;
73863;SDS011;62200;52.062;5.292;2022-07-22T08:26:51;3.25;;;0.70;;
73863;SDS011;62200;52.062;5.292;2022-07-22T08:29:16;5.53;;;0.90;;
73863;SDS011;62200;52.062;5.292;2022-07-22T08:31:42;6.45;;;0.90;;
73863;SDS011;62200;52.062;5.292;2022-07-22T08:34:08;6.05;;;0.80;;
73863;SDS011;62200;52.062;5.292;2022-07-22T08:36:34;3.58;;;1.10;;
73863;SDS011;62200;52.062;5.292;2022-07-22T08:38:59;4.13;;;0.90;;
73863;SDS011;62200;52.062;5.292;2022-07-22T08:41:25;1.55;;;0.55;;
73863;SDS011;62200;52.062;5.292;2022-07-22T08:43:50;2.95;;;0.90;;
73863;SDS011;62200;52.062;5.292;2022-07-22T08:46:17;4.43;;;1.00;;
73863;SDS011;62200;52.062;5.292;2022-07-22T08:48:43;4.45;;;1.00;;
73863;SDS011;62200;52.062;5.292;2022-07-22T08:51:09;5.78;;;0.80;;
73863;SDS011;62200;52.062;5.292;2022-07-22T08:53:34;3.75;;;1.08;;
73863;SDS011;62200;52.062;5.292;2022-07-22T08:56:00;3.67;;;0.75;;
73863;SDS011;62200;52.062;5.292;2022-07-22T08:58:26;4.75;;;0.98;;
73863;SDS011;62200;52.062;5.292;2022-07-22T09:01:08;4.82;;;0.80;;
73863;SDS011;62200;52.062;5.292;2022-07-22T09:03:44;6.35;;;0.95;;
73863;SDS011;62200;52.062;5.292;2022-07-22T09:06:26;2.60;;;0.60;;
73863;SDS011;62200;52.062;5.292;2022-07-22T09:08:59;3.55;;;0.80;;
73863;SDS011;62200;52.062;5.292;2022-07-22T09:11:27;6.13;;;0.90;;
73863;SDS011;62200;52.062;5.292;2022-07-22T09:13:54;4.60;;;1.05;;
73863;SDS011;62200;52.062;5.292;2022-07-22T09:19:10;5.63;;;0.90;;
73863;SDS011;62200;52.062;5.292;2022-07-22T09:21:38;3.35;;;0.93;;
73863;SDS011;62200;52.062;5.292;2022-07-22T09:24:06;3.40;;;0.80;;
73863;SDS011;62200;52.062;5.292;2022-07-22T09:26:33;4.18;;;0.90;;
73863;SDS011;62200;52.062;5.292;2022-07-22T09:29:00;3.67;;;1.00;;
73863;SDS011;62200;52.062;5.292;2022-07-22T09:31:31;3.58;;;0.80;;
73863;SDS011;62200;52.062;5.292;2022-07-22T09:33:58;4.28;;;0.88;;
73863;SDS011;62200;52.062;5.292;2022-07-22T09:36:24;7.68;;;1.00;;
73863;SDS011;62200;52.062;5.292;2022-07-22T09:38:50;3.47;;;1.08;;
73863;SDS011;62200;52.062;5.292;2022-07-22T09:41:16;3.42;;;0.90;;
73863;SDS011;62200;52.062;5.292;2022-07-22T09:43:42;4.32;;;1.25;;
73863;SDS011;62200;52.062;5.292;2022-07-22T09:46:07;3.70;;;0.95;;
73863;SDS011;62200;52.062;5.292;2022-07-22T09:48:34;3.17;;;0.98;;
73863;SDS011;62200;52.062;5.292;2022-07-22T09:51:02;3.15;;;1.00;;
73863;SDS011;62200;52.062;5.292;2022-07-22T09:53:28;4.70;;;1.13;;
73863;SDS011;62200;52.062;5.292;2022-07-22T09:55:55;4.32;;;1.00;;
73863;SDS011;62200;52.062;5.292;2022-07-22T09:58:24;3.10;;;1.00;;
73863;SDS011;62200;52.062;5.292;2022-07-22T10:00:51;4.60;;;1.10;;
73863;SDS011;62200;52.062;5.292;2022-07-22T10:03:18;3.03;;;1.02;;
73863;SDS011;62200;52.062;5.292;2022-07-22T10:05:48;4.75;;;1.10;;
73863;SDS011;62200;52.062;5.292;2022-07-22T10:08:15;2.60;;;1.20;;
73863;SDS011;62200;52.062;5.292;2022-07-22T10:10:41;3.65;;;1.13;;
73863;SDS011;62200;52.062;5.292;2022-07-22T10:13:06;4.00;;;0.90;;
73863;SDS011;62200;52.062;5.292;2022-07-22T10:15:33;4.13;;;1.42;;
73863;SDS011;62200;52.062;5.292;2022-07-22T10:18:01;3.88;;;1.30;;
73863;SDS011;62200;52.062;5.292;2022-07-22T10:20:32;5.63;;;1.15;;
73863;SDS011;62200;52.062;5.292;2022-07-22T10:22:59;2.05;;;0.80;;
73863;SDS011;62200;52.062;5.292;2022-07-22T10:25:29;2.65;;;0.88;;
73863;SDS011;62200;52.062;5.292;2022-07-22T10:27:58;2.92;;;1.05;;
73863;SDS011;62200;52.062;5.292;2022-07-22T10:30:30;2.92;;;0.93;;
73863;SDS011;62200;52.062;5.292;2022-07-22T10:33:07;3.38;;;1.25;;
73863;SDS011;62200;52.062;5.292;2022-07-22T10:35:59;2.42;;;0.93;;
73863;SDS011;62200;52.062;5.292;2022-07-22T10:38:27;4.88;;;1.23;;
73863;SDS011;62200;52.062;5.292;2022-07-22T10:40:55;3.17;;;1.23;;
73863;SDS011;62200;52.062;5.292;2022-07-22T10:46:01;3.55;;;1.13;;
73863;SDS011;62200;52.062;5.292;2022-07-22T10:51:13;4.80;;;1.40;;
73863;SDS011;62200;52.062;5.292;2022-07-22T10:53:56;4.22;;;1.77;;
73863;SDS011;62200;52.062;5.292;2022-07-22T10:56:30;5.28;;;1.52;;
73863;SDS011;62200;52.062;5.292;2022-07-22T10:59:13;3.28;;;1.40;;
73863;SDS011;62200;52.062;5.292;2022-07-22T11:01:44;3.53;;;1.70;;
73863;SDS011;62200;52.062;5.292;2022-07-22T11:06:44;7.30;;;2.15;;
73863;SDS011;62200;52.062;5.292;2022-07-22T11:09:12;11.00;;;2.05;;
73863;SDS011;62200;52.062;5.292;2022-07-22T11:11:42;5.93;;;2.70;;
73863;SDS011;62200;52.062;5.292;2022-07-22T11:16:43;3.90;;;2.30;;
73863;SDS011;62200;52.062;5.292;2022-07-22T11:19:10;3.95;;;2.42;;
73863;SDS011;62200;52.062;5.292;2022-07-22T11:21:35;5.07;;;2.15;;
73863;SDS011;62200;52.062;5.292;2022-07-22T11:24:03;7.22;;;2.67;;
73863;SDS011;62200;52.062;5.292;2022-07-22T11:29:09;4.68;;;2.28;;
73863;SDS011;62200;52.062;5.292;2022-07-22T11:31:40;5.40;;;2.20;;
73863;SDS011;62200;52.062;5.292;2022-07-22T11:34:12;6.18;;;3.05;;
73863;SDS011;62200;52.062;5.292;2022-07-22T11:36:41;6.13;;;2.47;;
73863;SDS011;62200;52.062;5.292;2022-07-22T11:39:08;4.90;;;2.63;;
73863;SDS011;62200;52.062;5.292;2022-07-22T11:41:34;8.30;;;3.42;;
73863;SDS011;62200;52.062;5.292;2022-07-22T11:44:00;6.43;;;2.90;;
73863;SDS011;62200;52.062;5.292;2022-07-22T11:46:27;7.43;;;3.10;;
73863;SDS011;62200;52.062;5.292;2022-07-22T11:48:53;5.28;;;2.72;;
73863;SDS011;62200;52.062;5.292;2022-07-22T11:51:22;3.90;;;2.60;;
73863;SDS011;62200;52.062;5.292;2022-07-22T11:53:53;4.53;;;2.90;;
73863;SDS011;62200;52.062;5.292;2022-07-22T11:56:18;4.85;;;2.55;;
73863;SDS011;62200;52.062;5.292;2022-07-22T11:58:45;8.85;;;2.70;;
73863;SDS011;62200;52.062;5.292;2022-07-22T12:01:12;4.22;;;2.63;;
73863;SDS011;62200;52.062;5.292;2022-07-22T12:03:40;8.10;;;3.00;;
73863;SDS011;62200;52.062;5.292;2022-07-22T12:06:10;4.40;;;2.60;;
73863;SDS011;62200;52.062;5.292;2022-07-22T12:08:45;8.57;;;3.25;;
73863;SDS011;62200;52.062;5.292;2022-07-22T12:11:15;5.40;;;3.03;;
73863;SDS011;62200;52.062;5.292;2022-07-22T12:13:42;5.78;;;2.53;;
73863;SDS011;62200;52.062;5.292;2022-07-22T12:16:22;4.90;;;2.85;;
73863;SDS011;62200;52.062;5.292;2022-07-22T12:19:01;7.18;;;2.70;;
73863;SDS011;62200;52.062;5.292;2022-07-22T12:21:30;11.00;;;2.75;;
73863;SDS011;62200;52.062;5.292;2022-07-22T12:24:02;10.20;;;3.38;;
73863;SDS011;62200;52.062;5.292;2022-07-22T12:26:36;7.07;;;3.13;;
73863;SDS011;62200;52.062;5.292;2022-07-22T12:31:41;6.32;;;2.80;;
73863;SDS011;62200;52.062;5.292;2022-07-22T12:34:08;5.70;;;2.92;;
73863;SDS011;62200;52.062;5.292;2022-07-22T12:36:33;5.97;;;3.03;;
73863;SDS011;62200;52.062;5.292;2022-07-22T12:39:10;7.88;;;2.50;;
73863;SDS011;62200;52.062;5.292;2022-07-22T12:41:50;5.40;;;2.10;;
73863;SDS011;62200;52.062;5.292;2022-07-22T12:44:21;9.52;;;2.75;;
73863;SDS011;62200;52.062;5.292;2022-07-22T12:46:49;4.55;;;2.70;;
73863;SDS011;62200;52.062;5.292;2022-07-22T12:49:17;3.72;;;2.53;;
73863;SDS011;62200;52.062;5.292;2022-07-22T12:54:36;5.20;;;3.00;;
73863;SDS011;62200;52.062;5.292;2022-07-22T12:57:03;4.18;;;2.63;;
73863;SDS011;62200;52.062;5.292;2022-07-22T12:59:29;5.82;;;2.58;;
73863;SDS011;62200;52.062;5.292;2022-07-22T13:01:55;4.60;;;2.65;;
73863;SDS011;62200;52.062;5.292;2022-07-22T13:04:20;5.78;;;2.85;;
73863;SDS011;62200;52.062;5.292;2022-07-22T13:06:46;8.00;;;3.22;;
73863;SDS011;62200;52.062;5.292;2022-07-22T13:09:11;4.97;;;2.83;;
73863;SDS011;62200;52.062;5.292;2022-07-22T13:11:37;4.35;;;2.83;;
73863;SDS011;62200;52.062;5.292;2022-07-22T13:16:33;5.00;;;2.53;;
73863;SDS011;62200;52.062;5.292;2022-07-22T13:18:58;4.80;;;2.50;;
73863;SDS011;62200;52.062;5.292;2022-07-22T13:21:24;6.07;;;2.97;;
73863;SDS011;62200;52.062;5.292;2022-07-22T13:23:49;7.38;;;3.40;;
73863;SDS011;62200;52.062;5.292;2022-07-22T13:26:15;5.90;;;2.80;;
73863;SDS011;62200;52.062;5.292;2022-07-22T13:28:40;7.30;;;3.05;;
73863;SDS011;62200;52.062;5.292;2022-07-22T13:31:06;5.32;;;2.78;;
73863;SDS011;62200;52.062;5.292;2022-07-22T13:33:32;4.82;;;3.00;;
73863;SDS011;62200;52.062;5.292;2022-07-22T13:35:58;9.32;;;3.25;;
73863;SDS011;62200;52.062;5.292;2022-07-22T13:38:23;5.13;;;2.97;;
73863;SDS011;62200;52.062;5.292;2022-07-22T13:40:49;5.45;;;3.28;;
73863;SDS011;62200;52.062;5.292;2022-07-22T13:43:18;6.72;;;3.25;;
73863;SDS011;62200;52.062;5.292;2022-07-22T13:45:44;6.65;;;2.97;;
73863;SDS011;62200;52.062;5.292;2022-07-22T13:48:10;8.52;;;2.85;;
73863;SDS011;62200;52.062;5.292;2022-07-22T13:50:35;7.10;;;3.40;;
73863;SDS011;62200;52.062;5.292;2022-07-22T13:53:01;7.65;;;2.88;;
73863;SDS011;62200;52.062;5.292;2022-07-22T13:55:26;5.85;;;2.53;;
73863;SDS011;62200;52.062;5.292;2022-07-22T13:57:52;5.97;;;2.58;;
73863;SDS011;62200;52.062;5.292;2022-07-22T14:00:17;7.05;;;3.08;;
73863;SDS011;62200;52.062;5.292;2022-07-22T14:02:43;5.18;;;2.67;;
73863;SDS011;62200;52.062;5.292;2022-07-22T14:05:10;5.20;;;2.22;;
73863;SDS011;62200;52.062;5.292;2022-07-22T14:07:35;5.45;;;2.60;;
73863;SDS011;62200;52.062;5.292;2022-07-22T14:10:01;4.07;;;2.60;;
73863;SDS011;62200;52.062;5.292;2022-07-22T14:12:26;7.82;;;2.88;;
73863;SDS011;62200;52.062;5.292;2022-07-22T14:14:52;7.40;;;3.00;;
73863;SDS011;62200;52.062;5.292;2022-07-22T14:17:17;4.72;;;2.65;;
73863;SDS011;62200;52.062;5.292;2022-07-22T14:19:43;4.63;;;2.78;;
73863;SDS011;62200;52.062;5.292;2022-07-22T14:22:08;8.38;;;2.22;;
73863;SDS011;62200;52.062;5.292;2022-07-22T14:24:34;4.45;;;2.33;;
73863;SDS011;62200;52.062;5.292;2022-07-22T14:26:59;4.35;;;2.53;;
73863;SDS011;62200;52.062;5.292;2022-07-22T14:29:24;4.18;;;2.30;;
73863;SDS011;62200;52.062;5.292;2022-07-22T14:31:50;5.28;;;2.20;;
73863;SDS011;62200;52.062;5.292;2022-07-22T14:34:16;12.73;;;2.50;;
73863;SDS011;62200;52.062;5.292;2022-07-22T14:36:41;4.53;;;2.63;;
73863;SDS011;62200;52.062;5.292;2022-07-22T14:39:07;4.70;;;2.13;;
73863;SDS011;62200;52.062;5.292;2022-07-22T14:41:33;5.07;;;2.20;;
73863;SDS011;62200;52.062;5.292;2022-07-22T14:43:58;4.78;;;1.60;;
73863;SDS011;62200;52.062;5.292;2022-07-22T14:46:24;4.90;;;1.95;;
73863;SDS011;62200;52.062;5.292;2022-07-22T14:48:49;6.10;;;1.80;;
73863;SDS011;62200;52.062;5.292;2022-07-22T14:51:18;5.28;;;1.67;;
73863;SDS011;62200;52.062;5.292;2022-07-22T14:53:44;3.72;;;1.58;;
73863;SDS011;62200;52.062;5.292;2022-07-22T14:56:10;3.38;;;1.23;;
73863;SDS011;62200;52.062;5.292;2022-07-22T14:58:35;4.82;;;1.35;;
73863;SDS011;62200;52.062;5.292;2022-07-22T15:01:01;2.83;;;1.20;;
73863;SDS011;62200;52.062;5.292;2022-07-22T15:03:27;8.45;;;1.48;;
73863;SDS011;62200;52.062;5.292;2022-07-22T15:05:52;6.75;;;1.65;;
73863;SDS011;62200;52.062;5.292;2022-07-22T15:08:18;3.10;;;1.45;;